sensor_id;sensor_type;location;lat;lon;timestamp;P1;durP1;ratioP1;P2;durP2;ratioP2
16824;SDS011;8529;48.108;-1.706;2023-05-16T00:01:30;4.32;;;2.35;;
16824;SDS011;8529;48.108;-1.706;2023-05-16T00:03:59;6.43;;;2.33;;
16824;SDS011;8529;48.108;-1.706;2023-05-16T00:06:27;5.10;;;2.05;;
16824;SDS011;8529;48.108;-1.706;2023-05-16T00:08:54;7.85;;;2.13;;
16824;SDS011;8529;48.108;-1.706;2023-05-16T00:11:21;5.50;;;1.83;;
16824;SDS011;8529;48.108;-1.706;2023-05-16T00:13:48;4.50;;;2.10;;
16824;SDS011;8529;48.108;-1.706;2023-05-16T00:16:17;4.18;;;1.80;;
16824;SDS011;8529;48.108;-1.706;2023-05-16T00:18:45;4.25;;;2.05;;
16824;SDS011;8529;48.108;-1.706;2023-05-16T00:21:12;4.78;;;2.55;;
16824;SDS011;8529;48.108;-1.706;2023-05-16T00:23:39;7.22;;;2.53;;
16824;SDS011;8529;48.108;-1.706;2023-05-16T00:26:07;8.07;;;2.60;;
16824;SDS011;8529;48.108;-1.706;2023-05-16T00:28:34;4.30;;;2.42;;
16824;SDS011;8529;48.108;-1.706;2023-05-16T00:31:01;5.30;;;2.38;;
16824;SDS011;8529;48.108;-1.706;2023-05-16T00:33:29;5.90;;;2.22;;
16824;SDS011;8529;48.108;-1.706;2023-05-16T00:35:56;5.20;;;2.00;;
16824;SDS011;8529;48.108;-1.706;2023-05-16T00:38:23;5.03;;;2.28;;
16824;SDS011;8529;48.108;-1.706;2023-05-16T00:40:51;9.18;;;2.35;;
16824;SDS011;8529;48.108;-1.706;2023-05-16T00:43:18;4.00;;;2.03;;
16824;SDS011;8529;48.108;-1.706;2023-05-16T00:45:45;5.75;;;2.40;;
16824;SDS011;8529;48.108;-1.706;2023-05-16T00:48:12;5.75;;;2.63;;
16824;SDS011;8529;48.108;-1.706;2023-05-16T00:50:41;4.03;;;1.90;;
16824;SDS011;8529;48.108;-1.706;2023-05-16T00:53:09;3.10;;;2.05;;
16824;SDS011;8529;48.108;-1.706;2023-05-16T00:55:36;3.85;;;1.90;;
16824;SDS011;8529;48.108;-1.706;2023-05-16T00:58:03;4.45;;;2.10;;
16824;SDS011;8529;48.108;-1.706;2023-05-16T01:00:31;4.53;;;2.15;;
16824;SDS011;8529;48.108;-1.706;2023-05-16T01:02:59;6.53;;;2.13;;
16824;SDS011;8529;48.108;-1.706;2023-05-16T01:05:26;4.45;;;2.20;;
16824;SDS011;8529;48.108;-1.706;2023-05-16T01:07:55;5.00;;;2.03;;
16824;SDS011;8529;48.108;-1.706;2023-05-16T01:10:22;4.50;;;1.98;;
16824;SDS011;8529;48.108;-1.706;2023-05-16T01:12:53;5.10;;;2.20;;
16824;SDS011;8529;48.108;-1.706;2023-05-16T01:15:38;7.53;;;2.45;;
16824;SDS011;8529;48.108;-1.706;2023-05-16T01:18:14;6.15;;;2.47;;
16824;SDS011;8529;48.108;-1.706;2023-05-16T01:20:48;5.82;;;2.63;;
16824;SDS011;8529;48.108;-1.706;2023-05-16T01:23:25;6.70;;;2.10;;
16824;SDS011;8529;48.108;-1.706;2023-05-16T01:26:12;5.10;;;2.35;;
16824;SDS011;8529;48.108;-1.706;2023-05-16T01:28:44;4.95;;;1.90;;
16824;SDS011;8529;48.108;-1.706;2023-05-16T01:31:13;4.45;;;2.03;;
16824;SDS011;8529;48.108;-1.706;2023-05-16T01:33:40;5.60;;;2.20;;
16824;SDS011;8529;48.108;-1.706;2023-05-16T01:36:09;4.68;;;2.10;;
16824;SDS011;8529;48.108;-1.706;2023-05-16T01:38:41;4.47;;;2.25;;
16824;SDS011;8529;48.108;-1.706;2023-05-16T01:41:17;6.50;;;2.25;;
16824;SDS011;8529;48.108;-1.706;2023-05-16T01:43:50;5.18;;;2.05;;
16824;SDS011;8529;48.108;-1.706;2023-05-16T01:46:23;6.75;;;2.00;;
16824;SDS011;8529;48.108;-1.706;2023-05-16T01:48:56;3.03;;;1.92;;
16824;SDS011;8529;48.108;-1.706;2023-05-16T01:51:28;4.30;;;2.00;;
16824;SDS011;8529;48.108;-1.706;2023-05-16T01:53:59;5.50;;;1.90;;
16824;SDS011;8529;48.108;-1.706;2023-05-16T01:56:31;5.68;;;2.08;;
16824;SDS011;8529;48.108;-1.706;2023-05-16T01:58:59;5.65;;;2.28;;
16824;SDS011;8529;48.108;-1.706;2023-05-16T02:01:28;6.10;;;1.95;;
16824;SDS011;8529;48.108;-1.706;2023-05-16T02:03:56;4.38;;;2.22;;
16824;SDS011;8529;48.108;-1.706;2023-05-16T02:06:23;3.20;;;2.03;;
16824;SDS011;8529;48.108;-1.706;2023-05-16T02:08:51;4.90;;;2.30;;
16824;SDS011;8529;48.108;-1.706;2023-05-16T02:11:17;2.72;;;2.05;;
16824;SDS011;8529;48.108;-1.706;2023-05-16T02:13:46;6.78;;;2.70;;
16824;SDS011;8529;48.108;-1.706;2023-05-16T02:16:13;4.95;;;2.08;;
16824;SDS011;8529;48.108;-1.706;2023-05-16T02:18:40;4.28;;;2.22;;
16824;SDS011;8529;48.108;-1.706;2023-05-16T02:21:09;6.70;;;2.17;;
16824;SDS011;8529;48.108;-1.706;2023-05-16T02:23:35;5.55;;;2.20;;
16824;SDS011;8529;48.108;-1.706;2023-05-16T02:26:02;7.00;;;1.95;;
16824;SDS011;8529;48.108;-1.706;2023-05-16T02:28:29;4.28;;;2.22;;
16824;SDS011;8529;48.108;-1.706;2023-05-16T02:30:58;5.70;;;2.50;;
16824;SDS011;8529;48.108;-1.706;2023-05-16T02:33:26;4.63;;;2.35;;
16824;SDS011;8529;48.108;-1.706;2023-05-16T02:35:54;4.05;;;2.08;;
16824;SDS011;8529;48.108;-1.706;2023-05-16T02:38:20;2.47;;;1.95;;
16824;SDS011;8529;48.108;-1.706;2023-05-16T02:40:47;3.83;;;2.50;;
16824;SDS011;8529;48.108;-1.706;2023-05-16T02:43:14;3.83;;;2.30;;
16824;SDS011;8529;48.108;-1.706;2023-05-16T02:45:41;4.13;;;2.42;;
16824;SDS011;8529;48.108;-1.706;2023-05-16T02:48:10;6.90;;;2.30;;
16824;SDS011;8529;48.108;-1.706;2023-05-16T02:50:37;4.18;;;2.30;;
16824;SDS011;8529;48.108;-1.706;2023-05-16T02:53:05;5.68;;;2.20;;
16824;SDS011;8529;48.108;-1.706;2023-05-16T02:55:31;7.70;;;2.53;;
16824;SDS011;8529;48.108;-1.706;2023-05-16T02:57:58;8.93;;;2.85;;
16824;SDS011;8529;48.108;-1.706;2023-05-16T03:00:25;4.10;;;2.47;;
16824;SDS011;8529;48.108;-1.706;2023-05-16T03:02:52;7.70;;;2.78;;
16824;SDS011;8529;48.108;-1.706;2023-05-16T03:05:20;4.35;;;2.40;;
16824;SDS011;8529;48.108;-1.706;2023-05-16T03:07:47;5.45;;;2.75;;
16824;SDS011;8529;48.108;-1.706;2023-05-16T03:10:14;5.60;;;2.53;;
16824;SDS011;8529;48.108;-1.706;2023-05-16T03:12:41;5.13;;;2.65;;
16824;SDS011;8529;48.108;-1.706;2023-05-16T03:15:08;6.72;;;2.78;;
16824;SDS011;8529;48.108;-1.706;2023-05-16T03:17:35;7.20;;;2.80;;
16824;SDS011;8529;48.108;-1.706;2023-05-16T03:20:02;5.22;;;2.53;;
16824;SDS011;8529;48.108;-1.706;2023-05-16T03:22:34;7.28;;;2.83;;
16824;SDS011;8529;48.108;-1.706;2023-05-16T03:25:01;4.65;;;2.88;;
16824;SDS011;8529;48.108;-1.706;2023-05-16T03:27:29;5.05;;;2.95;;
16824;SDS011;8529;48.108;-1.706;2023-05-16T03:29:56;8.35;;;3.05;;
16824;SDS011;8529;48.108;-1.706;2023-05-16T03:32:23;7.10;;;3.00;;
16824;SDS011;8529;48.108;-1.706;2023-05-16T03:34:50;5.68;;;3.22;;
16824;SDS011;8529;48.108;-1.706;2023-05-16T03:37:17;4.90;;;2.70;;
16824;SDS011;8529;48.108;-1.706;2023-05-16T03:39:45;5.35;;;2.80;;
16824;SDS011;8529;48.108;-1.706;2023-05-16T03:42:12;3.72;;;3.00;;
16824;SDS011;8529;48.108;-1.706;2023-05-16T03:44:39;5.95;;;2.97;;
16824;SDS011;8529;48.108;-1.706;2023-05-16T03:47:06;4.20;;;2.47;;
16824;SDS011;8529;48.108;-1.706;2023-05-16T03:49:33;6.10;;;2.35;;
16824;SDS011;8529;48.108;-1.706;2023-05-16T03:52:01;5.22;;;2.63;;
16824;SDS011;8529;48.108;-1.706;2023-05-16T03:54:28;5.50;;;3.00;;
16824;SDS011;8529;48.108;-1.706;2023-05-16T03:56:56;6.63;;;2.65;;
16824;SDS011;8529;48.108;-1.706;2023-05-16T03:59:23;5.15;;;2.80;;
16824;SDS011;8529;48.108;-1.706;2023-05-16T04:01:49;2.90;;;2.20;;
16824;SDS011;8529;48.108;-1.706;2023-05-16T04:04:16;7.30;;;3.13;;
16824;SDS011;8529;48.108;-1.706;2023-05-16T04:06:43;4.22;;;2.22;;
16824;SDS011;8529;48.108;-1.706;2023-05-16T04:09:10;3.38;;;2.33;;
16824;SDS011;8529;48.108;-1.706;2023-05-16T04:11:37;4.65;;;2.63;;
16824;SDS011;8529;48.108;-1.706;2023-05-16T04:14:05;3.75;;;2.38;;
16824;SDS011;8529;48.108;-1.706;2023-05-16T04:16:32;3.28;;;2.75;;
16824;SDS011;8529;48.108;-1.706;2023-05-16T04:18:59;4.10;;;2.50;;
16824;SDS011;8529;48.108;-1.706;2023-05-16T04:21:27;6.18;;;2.80;;
16824;SDS011;8529;48.108;-1.706;2023-05-16T04:23:55;7.65;;;3.22;;
16824;SDS011;8529;48.108;-1.706;2023-05-16T04:26:22;6.95;;;3.28;;
16824;SDS011;8529;48.108;-1.706;2023-05-16T04:28:49;8.30;;;2.90;;
16824;SDS011;8529;48.108;-1.706;2023-05-16T04:31:18;5.28;;;3.13;;
16824;SDS011;8529;48.108;-1.706;2023-05-16T04:33:45;6.85;;;3.22;;
16824;SDS011;8529;48.108;-1.706;2023-05-16T04:36:12;7.03;;;3.35;;
16824;SDS011;8529;48.108;-1.706;2023-05-16T04:38:39;7.20;;;3.08;;
16824;SDS011;8529;48.108;-1.706;2023-05-16T04:41:07;5.95;;;3.08;;
16824;SDS011;8529;48.108;-1.706;2023-05-16T04:43:33;6.22;;;3.38;;
16824;SDS011;8529;48.108;-1.706;2023-05-16T04:46:00;7.45;;;3.60;;
16824;SDS011;8529;48.108;-1.706;2023-05-16T04:48:29;7.78;;;3.88;;
16824;SDS011;8529;48.108;-1.706;2023-05-16T04:50:56;7.30;;;3.88;;
16824;SDS011;8529;48.108;-1.706;2023-05-16T04:53:23;5.28;;;3.20;;
16824;SDS011;8529;48.108;-1.706;2023-05-16T04:55:50;7.05;;;3.75;;
16824;SDS011;8529;48.108;-1.706;2023-05-16T04:58:17;4.75;;;3.22;;
16824;SDS011;8529;48.108;-1.706;2023-05-16T05:00:44;6.00;;;3.30;;
16824;SDS011;8529;48.108;-1.706;2023-05-16T05:03:11;7.40;;;3.80;;
16824;SDS011;8529;48.108;-1.706;2023-05-16T05:05:39;6.10;;;2.90;;
16824;SDS011;8529;48.108;-1.706;2023-05-16T05:08:06;4.30;;;3.25;;
16824;SDS011;8529;48.108;-1.706;2023-05-16T05:10:33;6.25;;;3.97;;
16824;SDS011;8529;48.108;-1.706;2023-05-16T05:13:00;7.05;;;3.65;;
16824;SDS011;8529;48.108;-1.706;2023-05-16T05:15:27;6.82;;;3.47;;
16824;SDS011;8529;48.108;-1.706;2023-05-16T05:17:55;6.47;;;3.78;;
16824;SDS011;8529;48.108;-1.706;2023-05-16T05:20:22;7.97;;;3.40;;
16824;SDS011;8529;48.108;-1.706;2023-05-16T05:22:50;6.85;;;3.05;;
16824;SDS011;8529;48.108;-1.706;2023-05-16T05:25:17;5.65;;;2.78;;
16824;SDS011;8529;48.108;-1.706;2023-05-16T05:27:44;8.63;;;4.63;;
16824;SDS011;8529;48.108;-1.706;2023-05-16T05:30:12;6.38;;;3.40;;
16824;SDS011;8529;48.108;-1.706;2023-05-16T05:32:39;4.63;;;2.92;;
16824;SDS011;8529;48.108;-1.706;2023-05-16T05:35:06;8.57;;;3.75;;
16824;SDS011;8529;48.108;-1.706;2023-05-16T05:37:33;5.47;;;3.38;;
16824;SDS011;8529;48.108;-1.706;2023-05-16T05:40:01;6.53;;;3.60;;
16824;SDS011;8529;48.108;-1.706;2023-05-16T05:42:28;6.60;;;3.78;;
16824;SDS011;8529;48.108;-1.706;2023-05-16T05:44:55;6.72;;;3.50;;
16824;SDS011;8529;48.108;-1.706;2023-05-16T05:47:22;5.80;;;3.13;;
16824;SDS011;8529;48.108;-1.706;2023-05-16T05:49:49;7.30;;;3.40;;
16824;SDS011;8529;48.108;-1.706;2023-05-16T05:52:16;6.47;;;3.72;;
16824;SDS011;8529;48.108;-1.706;2023-05-16T05:54:43;8.20;;;3.90;;
16824;SDS011;8529;48.108;-1.706;2023-05-16T05:57:12;5.72;;;3.47;;
16824;SDS011;8529;48.108;-1.706;2023-05-16T05:59:39;6.57;;;3.60;;
16824;SDS011;8529;48.108;-1.706;2023-05-16T06:02:06;6.35;;;3.70;;
16824;SDS011;8529;48.108;-1.706;2023-05-16T06:04:33;11.50;;;4.10;;
16824;SDS011;8529;48.108;-1.706;2023-05-16T06:07:00;9.50;;;3.88;;
16824;SDS011;8529;48.108;-1.706;2023-05-16T06:09:27;6.82;;;3.65;;
16824;SDS011;8529;48.108;-1.706;2023-05-16T06:11:54;7.40;;;3.85;;
16824;SDS011;8529;48.108;-1.706;2023-05-16T06:14:23;6.97;;;4.25;;
16824;SDS011;8529;48.108;-1.706;2023-05-16T06:16:50;8.13;;;5.38;;
16824;SDS011;8529;48.108;-1.706;2023-05-16T06:19:17;10.00;;;5.10;;
16824;SDS011;8529;48.108;-1.706;2023-05-16T06:21:44;11.32;;;4.82;;
16824;SDS011;8529;48.108;-1.706;2023-05-16T06:24:10;8.95;;;4.82;;
16824;SDS011;8529;48.108;-1.706;2023-05-16T06:26:37;10.88;;;4.97;;
16824;SDS011;8529;48.108;-1.706;2023-05-16T06:29:04;9.52;;;4.78;;
16824;SDS011;8529;48.108;-1.706;2023-05-16T06:31:33;8.73;;;5.47;;
16824;SDS011;8529;48.108;-1.706;2023-05-16T06:33:59;10.07;;;5.05;;
16824;SDS011;8529;48.108;-1.706;2023-05-16T06:36:26;8.13;;;4.85;;
16824;SDS011;8529;48.108;-1.706;2023-05-16T06:38:53;9.07;;;5.03;;
16824;SDS011;8529;48.108;-1.706;2023-05-16T06:41:20;10.13;;;4.50;;
16824;SDS011;8529;48.108;-1.706;2023-05-16T06:43:47;9.98;;;4.72;;
16824;SDS011;8529;48.108;-1.706;2023-05-16T06:46:14;8.90;;;5.28;;
16824;SDS011;8529;48.108;-1.706;2023-05-16T06:48:42;10.18;;;5.45;;
16824;SDS011;8529;48.108;-1.706;2023-05-16T06:51:09;9.10;;;5.75;;
16824;SDS011;8529;48.108;-1.706;2023-05-16T06:53:36;10.35;;;4.90;;
16824;SDS011;8529;48.108;-1.706;2023-05-16T06:56:03;11.98;;;4.82;;
16824;SDS011;8529;48.108;-1.706;2023-05-16T06:58:30;9.68;;;5.28;;
16824;SDS011;8529;48.108;-1.706;2023-05-16T07:00:57;9.13;;;4.55;;
16824;SDS011;8529;48.108;-1.706;2023-05-16T07:03:24;8.35;;;5.82;;
16824;SDS011;8529;48.108;-1.706;2023-05-16T07:05:52;10.43;;;4.97;;
16824;SDS011;8529;48.108;-1.706;2023-05-16T07:08:19;8.77;;;4.63;;
16824;SDS011;8529;48.108;-1.706;2023-05-16T07:10:46;9.20;;;5.28;;
16824;SDS011;8529;48.108;-1.706;2023-05-16T07:13:13;11.43;;;4.70;;
16824;SDS011;8529;48.108;-1.706;2023-05-16T07:15:40;8.35;;;4.57;;
16824;SDS011;8529;48.108;-1.706;2023-05-16T07:18:07;9.13;;;5.20;;
16824;SDS011;8529;48.108;-1.706;2023-05-16T07:20:34;10.05;;;4.60;;
16824;SDS011;8529;48.108;-1.706;2023-05-16T07:23:02;7.47;;;5.03;;
16824;SDS011;8529;48.108;-1.706;2023-05-16T07:25:29;8.82;;;5.38;;
16824;SDS011;8529;48.108;-1.706;2023-05-16T07:27:57;8.77;;;4.50;;
16824;SDS011;8529;48.108;-1.706;2023-05-16T07:30:25;7.75;;;3.97;;
16824;SDS011;8529;48.108;-1.706;2023-05-16T07:32:52;5.75;;;3.88;;
16824;SDS011;8529;48.108;-1.706;2023-05-16T07:35:19;7.43;;;3.78;;
16824;SDS011;8529;48.108;-1.706;2023-05-16T07:37:45;6.65;;;3.85;;
16824;SDS011;8529;48.108;-1.706;2023-05-16T07:40:14;5.30;;;3.00;;
16824;SDS011;8529;48.108;-1.706;2023-05-16T07:42:42;8.07;;;3.30;;
16824;SDS011;8529;48.108;-1.706;2023-05-16T07:45:09;9.70;;;2.90;;
16824;SDS011;8529;48.108;-1.706;2023-05-16T07:47:36;5.00;;;2.47;;
16824;SDS011;8529;48.108;-1.706;2023-05-16T07:50:03;5.75;;;2.63;;
16824;SDS011;8529;48.108;-1.706;2023-05-16T07:52:30;5.72;;;2.75;;
16824;SDS011;8529;48.108;-1.706;2023-05-16T07:54:57;10.27;;;4.38;;
16824;SDS011;8529;48.108;-1.706;2023-05-16T07:57:25;18.13;;;8.90;;
16824;SDS011;8529;48.108;-1.706;2023-05-16T07:59:52;13.85;;;6.22;;
16824;SDS011;8529;48.108;-1.706;2023-05-16T08:02:20;33.90;;;13.68;;
16824;SDS011;8529;48.108;-1.706;2023-05-16T08:04:48;90.47;;;29.52;;
16824;SDS011;8529;48.108;-1.706;2023-05-16T08:07:15;12.82;;;4.18;;
16824;SDS011;8529;48.108;-1.706;2023-05-16T08:09:42;10.70;;;3.50;;
16824;SDS011;8529;48.108;-1.706;2023-05-16T08:12:09;6.50;;;2.80;;
16824;SDS011;8529;48.108;-1.706;2023-05-16T08:14:37;5.28;;;1.80;;
16824;SDS011;8529;48.108;-1.706;2023-05-16T08:17:04;8.55;;;3.40;;
16824;SDS011;8529;48.108;-1.706;2023-05-16T08:19:31;3.72;;;1.88;;
16824;SDS011;8529;48.108;-1.706;2023-05-16T08:21:58;5.85;;;2.92;;
16824;SDS011;8529;48.108;-1.706;2023-05-16T08:24:25;9.38;;;4.72;;
16824;SDS011;8529;48.108;-1.706;2023-05-16T08:26:52;10.18;;;3.72;;
16824;SDS011;8529;48.108;-1.706;2023-05-16T08:29:18;4.93;;;2.72;;
16824;SDS011;8529;48.108;-1.706;2023-05-16T08:31:47;4.07;;;1.90;;
16824;SDS011;8529;48.108;-1.706;2023-05-16T08:34:14;5.35;;;2.10;;
16824;SDS011;8529;48.108;-1.706;2023-05-16T08:36:41;5.25;;;2.15;;
16824;SDS011;8529;48.108;-1.706;2023-05-16T08:39:07;3.38;;;2.00;;
16824;SDS011;8529;48.108;-1.706;2023-05-16T08:41:35;4.13;;;1.52;;
16824;SDS011;8529;48.108;-1.706;2023-05-16T08:44:03;3.80;;;1.73;;
16824;SDS011;8529;48.108;-1.706;2023-05-16T08:46:30;5.38;;;2.30;;
16824;SDS011;8529;48.108;-1.706;2023-05-16T08:49:01;18.38;;;5.45;;
16824;SDS011;8529;48.108;-1.706;2023-05-16T08:51:32;8.48;;;2.40;;
16824;SDS011;8529;48.108;-1.706;2023-05-16T08:54:02;3.95;;;1.88;;
16824;SDS011;8529;48.108;-1.706;2023-05-16T08:56:32;5.50;;;1.73;;
16824;SDS011;8529;48.108;-1.706;2023-05-16T08:58:59;6.35;;;2.90;;
16824;SDS011;8529;48.108;-1.706;2023-05-16T09:01:28;8.15;;;2.72;;
16824;SDS011;8529;48.108;-1.706;2023-05-16T09:03:56;4.18;;;1.70;;
16824;SDS011;8529;48.108;-1.706;2023-05-16T09:06:25;7.80;;;3.88;;
16824;SDS011;8529;48.108;-1.706;2023-05-16T09:08:52;8.88;;;5.18;;
16824;SDS011;8529;48.108;-1.706;2023-05-16T09:11:20;8.40;;;3.85;;
16824;SDS011;8529;48.108;-1.706;2023-05-16T09:13:46;3.88;;;2.00;;
16824;SDS011;8529;48.108;-1.706;2023-05-16T09:16:14;4.28;;;2.00;;
16824;SDS011;8529;48.108;-1.706;2023-05-16T09:18:42;4.88;;;2.42;;
16824;SDS011;8529;48.108;-1.706;2023-05-16T09:21:10;3.28;;;1.83;;
16824;SDS011;8529;48.108;-1.706;2023-05-16T09:23:41;4.60;;;2.33;;
16824;SDS011;8529;48.108;-1.706;2023-05-16T09:26:09;3.20;;;1.92;;
16824;SDS011;8529;48.108;-1.706;2023-05-16T09:28:37;2.72;;;1.90;;
16824;SDS011;8529;48.108;-1.706;2023-05-16T09:31:08;3.58;;;2.10;;
16824;SDS011;8529;48.108;-1.706;2023-05-16T09:33:45;3.47;;;1.90;;
16824;SDS011;8529;48.108;-1.706;2023-05-16T09:36:13;3.65;;;1.73;;
16824;SDS011;8529;48.108;-1.706;2023-05-16T09:38:42;2.85;;;1.65;;
16824;SDS011;8529;48.108;-1.706;2023-05-16T09:41:09;2.53;;;1.70;;
16824;SDS011;8529;48.108;-1.706;2023-05-16T09:43:37;3.78;;;1.95;;
16824;SDS011;8529;48.108;-1.706;2023-05-16T09:46:05;1.95;;;1.27;;
16824;SDS011;8529;48.108;-1.706;2023-05-16T09:48:32;2.80;;;1.58;;
16824;SDS011;8529;48.108;-1.706;2023-05-16T09:51:00;2.60;;;1.65;;
16824;SDS011;8529;48.108;-1.706;2023-05-16T09:53:30;2.20;;;1.63;;
16824;SDS011;8529;48.108;-1.706;2023-05-16T09:56:00;4.07;;;1.33;;
16824;SDS011;8529;48.108;-1.706;2023-05-16T09:58:28;2.58;;;1.20;;
16824;SDS011;8529;48.108;-1.706;2023-05-16T10:00:56;2.15;;;1.00;;
16824;SDS011;8529;48.108;-1.706;2023-05-16T10:03:23;2.25;;;1.10;;
16824;SDS011;8529;48.108;-1.706;2023-05-16T10:05:51;2.97;;;1.48;;
16824;SDS011;8529;48.108;-1.706;2023-05-16T10:08:19;2.53;;;1.55;;
16824;SDS011;8529;48.108;-1.706;2023-05-16T10:10:48;3.08;;;1.20;;
16824;SDS011;8529;48.108;-1.706;2023-05-16T10:13:19;1.75;;;1.38;;
16824;SDS011;8529;48.108;-1.706;2023-05-16T10:15:47;3.80;;;1.08;;
16824;SDS011;8529;48.108;-1.706;2023-05-16T10:18:15;3.08;;;1.30;;
16824;SDS011;8529;48.108;-1.706;2023-05-16T10:20:44;3.70;;;1.48;;
16824;SDS011;8529;48.108;-1.706;2023-05-16T10:23:15;5.05;;;1.92;;
16824;SDS011;8529;48.108;-1.706;2023-05-16T10:25:44;3.33;;;1.30;;
16824;SDS011;8529;48.108;-1.706;2023-05-16T10:28:12;3.17;;;1.38;;
16824;SDS011;8529;48.108;-1.706;2023-05-16T10:30:41;4.57;;;2.22;;
16824;SDS011;8529;48.108;-1.706;2023-05-16T10:33:10;3.80;;;1.33;;
16824;SDS011;8529;48.108;-1.706;2023-05-16T10:35:38;2.30;;;1.13;;
16824;SDS011;8529;48.108;-1.706;2023-05-16T10:38:06;5.15;;;1.20;;
16824;SDS011;8529;48.108;-1.706;2023-05-16T10:40:34;4.93;;;1.23;;
16824;SDS011;8529;48.108;-1.706;2023-05-16T10:43:03;2.58;;;1.33;;
16824;SDS011;8529;48.108;-1.706;2023-05-16T10:45:32;2.95;;;1.30;;
16824;SDS011;8529;48.108;-1.706;2023-05-16T10:48:01;3.10;;;1.30;;
16824;SDS011;8529;48.108;-1.706;2023-05-16T10:50:29;3.97;;;1.23;;
16824;SDS011;8529;48.108;-1.706;2023-05-16T10:53:11;2.13;;;1.25;;
16824;SDS011;8529;48.108;-1.706;2023-05-16T10:55:39;2.03;;;1.20;;
16824;SDS011;8529;48.108;-1.706;2023-05-16T10:58:09;1.35;;;1.00;;
16824;SDS011;8529;48.108;-1.706;2023-05-16T11:00:38;1.80;;;1.10;;
16824;SDS011;8529;48.108;-1.706;2023-05-16T11:03:06;1.58;;;1.05;;
16824;SDS011;8529;48.108;-1.706;2023-05-16T11:05:49;4.05;;;1.58;;
16824;SDS011;8529;48.108;-1.706;2023-05-16T11:08:18;3.55;;;1.40;;
16824;SDS011;8529;48.108;-1.706;2023-05-16T11:10:45;2.55;;;1.65;;
16824;SDS011;8529;48.108;-1.706;2023-05-16T11:13:12;2.10;;;1.10;;
16824;SDS011;8529;48.108;-1.706;2023-05-16T11:15:43;4.63;;;1.23;;
16824;SDS011;8529;48.108;-1.706;2023-05-16T11:18:15;3.28;;;1.23;;
16824;SDS011;8529;48.108;-1.706;2023-05-16T11:20:42;3.50;;;1.33;;
16824;SDS011;8529;48.108;-1.706;2023-05-16T11:23:19;3.47;;;1.30;;
16824;SDS011;8529;48.108;-1.706;2023-05-16T11:25:50;2.92;;;1.35;;
16824;SDS011;8529;48.108;-1.706;2023-05-16T11:28:19;3.75;;;1.83;;
16824;SDS011;8529;48.108;-1.706;2023-05-16T11:30:47;4.63;;;1.23;;
16824;SDS011;8529;48.108;-1.706;2023-05-16T11:33:16;3.10;;;1.40;;
16824;SDS011;8529;48.108;-1.706;2023-05-16T11:35:58;3.35;;;1.58;;
16824;SDS011;8529;48.108;-1.706;2023-05-16T11:38:28;3.80;;;1.38;;
16824;SDS011;8529;48.108;-1.706;2023-05-16T11:41:00;2.45;;;1.27;;
16824;SDS011;8529;48.108;-1.706;2023-05-16T11:43:35;2.38;;;1.10;;
16824;SDS011;8529;48.108;-1.706;2023-05-16T11:46:03;2.88;;;1.20;;
16824;SDS011;8529;48.108;-1.706;2023-05-16T11:48:31;6.35;;;1.30;;
16824;SDS011;8529;48.108;-1.706;2023-05-16T11:50:58;1.90;;;1.35;;
16824;SDS011;8529;48.108;-1.706;2023-05-16T11:53:26;2.22;;;1.17;;
16824;SDS011;8529;48.108;-1.706;2023-05-16T11:55:53;3.67;;;1.60;;
16824;SDS011;8529;48.108;-1.706;2023-05-16T11:58:20;5.28;;;1.40;;
16824;SDS011;8529;48.108;-1.706;2023-05-16T12:00:48;4.43;;;1.33;;
16824;SDS011;8529;48.108;-1.706;2023-05-16T12:03:17;3.72;;;1.20;;
16824;SDS011;8529;48.108;-1.706;2023-05-16T12:05:52;5.13;;;1.50;;
16824;SDS011;8529;48.108;-1.706;2023-05-16T12:08:21;1.40;;;0.90;;
16824;SDS011;8529;48.108;-1.706;2023-05-16T12:10:48;4.18;;;1.60;;
16824;SDS011;8529;48.108;-1.706;2023-05-16T12:13:16;3.40;;;1.40;;
16824;SDS011;8529;48.108;-1.706;2023-05-16T12:15:45;3.10;;;1.20;;
16824;SDS011;8529;48.108;-1.706;2023-05-16T12:18:12;1.40;;;0.98;;
16824;SDS011;8529;48.108;-1.706;2023-05-16T12:20:40;1.63;;;1.20;;
16824;SDS011;8529;48.108;-1.706;2023-05-16T12:23:10;3.28;;;1.27;;
16824;SDS011;8529;48.108;-1.706;2023-05-16T12:25:38;2.08;;;1.10;;
16824;SDS011;8529;48.108;-1.706;2023-05-16T12:28:10;3.13;;;1.38;;
16824;SDS011;8529;48.108;-1.706;2023-05-16T12:30:39;2.03;;;1.50;;
16824;SDS011;8529;48.108;-1.706;2023-05-16T12:33:08;2.15;;;1.05;;
16824;SDS011;8529;48.108;-1.706;2023-05-16T12:35:37;1.70;;;1.20;;
16824;SDS011;8529;48.108;-1.706;2023-05-16T12:38:04;2.65;;;1.23;;
16824;SDS011;8529;48.108;-1.706;2023-05-16T12:40:33;3.25;;;1.52;;
16824;SDS011;8529;48.108;-1.706;2023-05-16T12:43:02;3.42;;;1.20;;
16824;SDS011;8529;48.108;-1.706;2023-05-16T12:45:28;2.65;;;1.30;;
16824;SDS011;8529;48.108;-1.706;2023-05-16T12:47:55;1.75;;;1.10;;
16824;SDS011;8529;48.108;-1.706;2023-05-16T12:50:25;2.95;;;1.30;;
16824;SDS011;8529;48.108;-1.706;2023-05-16T12:52:52;3.63;;;1.45;;
16824;SDS011;8529;48.108;-1.706;2023-05-16T12:55:23;4.57;;;1.45;;
16824;SDS011;8529;48.108;-1.706;2023-05-16T12:57:53;3.17;;;1.00;;
16824;SDS011;8529;48.108;-1.706;2023-05-16T13:00:21;2.78;;;1.20;;
16824;SDS011;8529;48.108;-1.706;2023-05-16T13:02:48;2.70;;;0.93;;
16824;SDS011;8529;48.108;-1.706;2023-05-16T13:05:16;2.90;;;1.33;;
16824;SDS011;8529;48.108;-1.706;2023-05-16T13:07:43;4.88;;;1.20;;
16824;SDS011;8529;48.108;-1.706;2023-05-16T13:10:10;2.78;;;1.70;;
16824;SDS011;8529;48.108;-1.706;2023-05-16T13:12:37;1.85;;;1.27;;
16824;SDS011;8529;48.108;-1.706;2023-05-16T13:15:07;4.63;;;1.63;;
16824;SDS011;8529;48.108;-1.706;2023-05-16T13:17:36;4.72;;;1.42;;
16824;SDS011;8529;48.108;-1.706;2023-05-16T13:20:03;4.57;;;1.33;;
16824;SDS011;8529;48.108;-1.706;2023-05-16T13:22:33;3.67;;;1.42;;
16824;SDS011;8529;48.108;-1.706;2023-05-16T13:25:00;3.15;;;1.00;;
16824;SDS011;8529;48.108;-1.706;2023-05-16T13:27:28;6.10;;;1.67;;
16824;SDS011;8529;48.108;-1.706;2023-05-16T13:29:55;3.60;;;1.58;;
16824;SDS011;8529;48.108;-1.706;2023-05-16T13:32:24;2.83;;;1.13;;
16824;SDS011;8529;48.108;-1.706;2023-05-16T13:34:51;3.75;;;1.38;;
16824;SDS011;8529;48.108;-1.706;2023-05-16T13:37:19;2.53;;;1.60;;
16824;SDS011;8529;48.108;-1.706;2023-05-16T13:39:48;3.22;;;1.40;;
16824;SDS011;8529;48.108;-1.706;2023-05-16T13:42:15;4.43;;;1.30;;
16824;SDS011;8529;48.108;-1.706;2023-05-16T13:44:42;2.78;;;1.25;;
16824;SDS011;8529;48.108;-1.706;2023-05-16T13:47:09;5.97;;;1.60;;
16824;SDS011;8529;48.108;-1.706;2023-05-16T13:49:37;4.13;;;1.30;;
16824;SDS011;8529;48.108;-1.706;2023-05-16T13:52:04;1.25;;;0.85;;
16824;SDS011;8529;48.108;-1.706;2023-05-16T13:54:32;2.78;;;1.10;;
16824;SDS011;8529;48.108;-1.706;2023-05-16T13:56:59;3.95;;;1.10;;
16824;SDS011;8529;48.108;-1.706;2023-05-16T13:59:27;1.65;;;1.13;;
16824;SDS011;8529;48.108;-1.706;2023-05-16T14:01:54;4.10;;;1.52;;
16824;SDS011;8529;48.108;-1.706;2023-05-16T14:04:21;3.97;;;1.42;;
16824;SDS011;8529;48.108;-1.706;2023-05-16T14:06:49;6.53;;;1.98;;
16824;SDS011;8529;48.108;-1.706;2023-05-16T14:09:16;3.22;;;1.27;;
16824;SDS011;8529;48.108;-1.706;2023-05-16T14:11:43;4.53;;;1.48;;
16824;SDS011;8529;48.108;-1.706;2023-05-16T14:14:10;4.90;;;1.55;;
16824;SDS011;8529;48.108;-1.706;2023-05-16T14:16:37;5.57;;;1.50;;
16824;SDS011;8529;48.108;-1.706;2023-05-16T14:19:08;3.40;;;1.52;;
16824;SDS011;8529;48.108;-1.706;2023-05-16T14:21:36;3.60;;;1.25;;
16824;SDS011;8529;48.108;-1.706;2023-05-16T14:24:06;4.20;;;1.58;;
16824;SDS011;8529;48.108;-1.706;2023-05-16T14:26:33;6.80;;;1.45;;
16824;SDS011;8529;48.108;-1.706;2023-05-16T14:29:00;3.97;;;1.40;;
16824;SDS011;8529;48.108;-1.706;2023-05-16T14:31:27;4.07;;;1.35;;
16824;SDS011;8529;48.108;-1.706;2023-05-16T14:33:55;6.57;;;1.83;;
16824;SDS011;8529;48.108;-1.706;2023-05-16T14:36:22;3.40;;;1.55;;
16824;SDS011;8529;48.108;-1.706;2023-05-16T14:38:49;3.35;;;1.25;;
16824;SDS011;8529;48.108;-1.706;2023-05-16T14:41:18;2.72;;;1.58;;
16824;SDS011;8529;48.108;-1.706;2023-05-16T14:43:45;2.67;;;1.25;;
16824;SDS011;8529;48.108;-1.706;2023-05-16T14:46:12;2.63;;;1.30;;
16824;SDS011;8529;48.108;-1.706;2023-05-16T14:48:39;3.88;;;1.27;;
16824;SDS011;8529;48.108;-1.706;2023-05-16T14:51:06;2.88;;;1.40;;
16824;SDS011;8529;48.108;-1.706;2023-05-16T14:53:33;4.30;;;1.27;;